sensor_id;sensor_type;location;lat;lon;timestamp;P1;durP1;ratioP1;P2;durP2;ratioP2
7957;SDS011;4024;52.172;5.378;2022-11-20T00:02:19;20.50;;;14.43;;
7957;SDS011;4024;52.172;5.378;2022-11-20T00:04:44;20.53;;;14.47;;
7957;SDS011;4024;52.172;5.378;2022-11-20T00:07:10;21.30;;;14.30;;
7957;SDS011;4024;52.172;5.378;2022-11-20T00:09:35;22.07;;;15.33;;
7957;SDS011;4024;52.172;5.378;2022-11-20T00:12:02;18.07;;;13.00;;
7957;SDS011;4024;52.172;5.378;2022-11-20T00:14:28;21.43;;;13.30;;
7957;SDS011;4024;52.172;5.378;2022-11-20T00:16:53;21.53;;;14.47;;
7957;SDS011;4024;52.172;5.378;2022-11-20T00:19:19;20.53;;;14.23;;
7957;SDS011;4024;52.172;5.378;2022-11-20T00:21:45;19.27;;;13.93;;
7957;SDS011;4024;52.172;5.378;2022-11-20T00:24:10;25.10;;;15.67;;
7957;SDS011;4024;52.172;5.378;2022-11-20T00:26:36;21.00;;;14.17;;
7957;SDS011;4024;52.172;5.378;2022-11-20T00:29:02;21.13;;;14.47;;
7957;SDS011;4024;52.172;5.378;2022-11-20T00:31:28;24.93;;;15.50;;
7957;SDS011;4024;52.172;5.378;2022-11-20T00:33:54;20.77;;;14.30;;
7957;SDS011;4024;52.172;5.378;2022-11-20T00:36:21;23.93;;;15.13;;
7957;SDS011;4024;52.172;5.378;2022-11-20T00:38:55;21.43;;;15.03;;
7957;SDS011;4024;52.172;5.378;2022-11-20T00:41:22;21.70;;;15.10;;
7957;SDS011;4024;52.172;5.378;2022-11-20T00:43:49;21.47;;;15.40;;
7957;SDS011;4024;52.172;5.378;2022-11-20T00:46:17;21.87;;;14.30;;
7957;SDS011;4024;52.172;5.378;2022-11-20T00:48:45;21.80;;;15.77;;
7957;SDS011;4024;52.172;5.378;2022-11-20T00:51:11;22.83;;;15.50;;
7957;SDS011;4024;52.172;5.378;2022-11-20T00:53:38;24.33;;;15.63;;
7957;SDS011;4024;52.172;5.378;2022-11-20T00:56:05;23.33;;;15.97;;
7957;SDS011;4024;52.172;5.378;2022-11-20T00:58:35;23.80;;;16.50;;
7957;SDS011;4024;52.172;5.378;2022-11-20T01:01:05;22.90;;;15.67;;
7957;SDS011;4024;52.172;5.378;2022-11-20T01:03:36;24.57;;;15.50;;
7957;SDS011;4024;52.172;5.378;2022-11-20T01:06:05;23.47;;;15.90;;
7957;SDS011;4024;52.172;5.378;2022-11-20T01:08:33;18.90;;;14.67;;
7957;SDS011;4024;52.172;5.378;2022-11-20T01:11:04;23.13;;;15.33;;
7957;SDS011;4024;52.172;5.378;2022-11-20T01:13:32;23.97;;;16.67;;
7957;SDS011;4024;52.172;5.378;2022-11-20T01:18:51;23.70;;;15.63;;
7957;SDS011;4024;52.172;5.378;2022-11-20T01:21:22;25.10;;;15.23;;
7957;SDS011;4024;52.172;5.378;2022-11-20T01:23:50;20.97;;;14.60;;
7957;SDS011;4024;52.172;5.378;2022-11-20T01:26:18;19.97;;;14.43;;
7957;SDS011;4024;52.172;5.378;2022-11-20T01:28:45;20.50;;;14.00;;
7957;SDS011;4024;52.172;5.378;2022-11-20T01:33:41;20.47;;;14.73;;
7957;SDS011;4024;52.172;5.378;2022-11-20T01:36:07;20.03;;;14.13;;
7957;SDS011;4024;52.172;5.378;2022-11-20T01:38:33;22.03;;;15.57;;
7957;SDS011;4024;52.172;5.378;2022-11-20T01:40:59;24.70;;;15.97;;
7957;SDS011;4024;52.172;5.378;2022-11-20T01:43:25;23.87;;;16.00;;
7957;SDS011;4024;52.172;5.378;2022-11-20T01:48:23;19.43;;;14.10;;
7957;SDS011;4024;52.172;5.378;2022-11-20T01:50:53;24.33;;;15.50;;
7957;SDS011;4024;52.172;5.378;2022-11-20T01:53:21;25.20;;;16.03;;
7957;SDS011;4024;52.172;5.378;2022-11-20T01:55:53;22.30;;;15.57;;
7957;SDS011;4024;52.172;5.378;2022-11-20T01:58:25;25.40;;;15.50;;
7957;SDS011;4024;52.172;5.378;2022-11-20T02:00:55;24.13;;;15.35;;
7957;SDS011;4024;52.172;5.378;2022-11-20T02:03:21;25.03;;;15.83;;
7957;SDS011;4024;52.172;5.378;2022-11-20T02:06:04;27.77;;;15.73;;
7957;SDS011;4024;52.172;5.378;2022-11-20T02:08:41;22.10;;;14.47;;
7957;SDS011;4024;52.172;5.378;2022-11-20T02:11:07;24.57;;;16.03;;
7957;SDS011;4024;52.172;5.378;2022-11-20T02:13:34;23.23;;;15.73;;
7957;SDS011;4024;52.172;5.378;2022-11-20T02:16:30;21.80;;;15.43;;
7957;SDS011;4024;52.172;5.378;2022-11-20T02:19:01;23.25;;;15.93;;
7957;SDS011;4024;52.172;5.378;2022-11-20T02:21:37;23.67;;;15.70;;
7957;SDS011;4024;52.172;5.378;2022-11-20T02:24:14;24.30;;;14.67;;
7957;SDS011;4024;52.172;5.378;2022-11-20T02:29:30;19.10;;;13.80;;
7957;SDS011;4024;52.172;5.378;2022-11-20T02:32:01;21.83;;;14.17;;
7957;SDS011;4024;52.172;5.378;2022-11-20T02:34:28;22.87;;;15.00;;
7957;SDS011;4024;52.172;5.378;2022-11-20T02:36:54;22.77;;;14.93;;
7957;SDS011;4024;52.172;5.378;2022-11-20T02:39:20;22.40;;;14.90;;
7957;SDS011;4024;52.172;5.378;2022-11-20T02:41:48;23.00;;;14.43;;
7957;SDS011;4024;52.172;5.378;2022-11-20T02:44:14;21.83;;;14.57;;
7957;SDS011;4024;52.172;5.378;2022-11-20T02:46:39;26.00;;;16.07;;
7957;SDS011;4024;52.172;5.378;2022-11-20T02:49:05;21.07;;;14.23;;
7957;SDS011;4024;52.172;5.378;2022-11-20T02:51:31;24.67;;;14.90;;
7957;SDS011;4024;52.172;5.378;2022-11-20T02:53:57;23.13;;;15.47;;
7957;SDS011;4024;52.172;5.378;2022-11-20T02:56:23;23.77;;;15.27;;
7957;SDS011;4024;52.172;5.378;2022-11-20T02:58:49;22.77;;;14.57;;
7957;SDS011;4024;52.172;5.378;2022-11-20T03:01:14;22.17;;;14.63;;
7957;SDS011;4024;52.172;5.378;2022-11-20T03:03:40;23.93;;;14.83;;
7957;SDS011;4024;52.172;5.378;2022-11-20T03:06:06;20.63;;;14.17;;
7957;SDS011;4024;52.172;5.378;2022-11-20T03:08:32;20.33;;;13.97;;
7957;SDS011;4024;52.172;5.378;2022-11-20T03:11:03;23.77;;;15.53;;
7957;SDS011;4024;52.172;5.378;2022-11-20T03:13:32;21.73;;;14.83;;
7957;SDS011;4024;52.172;5.378;2022-11-20T03:15:58;22.07;;;14.40;;
7957;SDS011;4024;52.172;5.378;2022-11-20T03:18:23;21.60;;;14.53;;
7957;SDS011;4024;52.172;5.378;2022-11-20T03:20:49;21.50;;;14.30;;
7957;SDS011;4024;52.172;5.378;2022-11-20T03:23:15;22.50;;;14.60;;
7957;SDS011;4024;52.172;5.378;2022-11-20T03:25:40;20.67;;;13.37;;
7957;SDS011;4024;52.172;5.378;2022-11-20T03:28:06;21.17;;;13.83;;
7957;SDS011;4024;52.172;5.378;2022-11-20T03:30:32;20.40;;;14.10;;
7957;SDS011;4024;52.172;5.378;2022-11-20T03:32:58;21.70;;;15.27;;
7957;SDS011;4024;52.172;5.378;2022-11-20T03:35:24;21.03;;;14.43;;
7957;SDS011;4024;52.172;5.378;2022-11-20T03:37:51;21.60;;;14.88;;
7957;SDS011;4024;52.172;5.378;2022-11-20T03:40:16;25.83;;;14.67;;
7957;SDS011;4024;52.172;5.378;2022-11-20T03:42:42;23.00;;;15.17;;
7957;SDS011;4024;52.172;5.378;2022-11-20T03:45:10;23.17;;;14.77;;
7957;SDS011;4024;52.172;5.378;2022-11-20T03:47:38;23.37;;;14.00;;
7957;SDS011;4024;52.172;5.378;2022-11-20T03:50:04;16.77;;;13.20;;
7957;SDS011;4024;52.172;5.378;2022-11-20T03:52:29;23.60;;;15.23;;
7957;SDS011;4024;52.172;5.378;2022-11-20T03:54:55;25.13;;;15.70;;
7957;SDS011;4024;52.172;5.378;2022-11-20T03:57:20;21.93;;;14.67;;
7957;SDS011;4024;52.172;5.378;2022-11-20T03:59:46;21.97;;;14.70;;
7957;SDS011;4024;52.172;5.378;2022-11-20T04:02:12;22.03;;;14.90;;
7957;SDS011;4024;52.172;5.378;2022-11-20T04:04:37;21.47;;;14.27;;
7957;SDS011;4024;52.172;5.378;2022-11-20T04:07:04;20.30;;;14.90;;
7957;SDS011;4024;52.172;5.378;2022-11-20T04:09:29;21.25;;;15.07;;
7957;SDS011;4024;52.172;5.378;2022-11-20T04:11:55;22.40;;;15.10;;
7957;SDS011;4024;52.172;5.378;2022-11-20T04:14:21;22.73;;;15.00;;
7957;SDS011;4024;52.172;5.378;2022-11-20T04:16:46;20.53;;;14.17;;
7957;SDS011;4024;52.172;5.378;2022-11-20T04:19:13;21.63;;;14.57;;
7957;SDS011;4024;52.172;5.378;2022-11-20T04:21:40;20.65;;;14.70;;
7957;SDS011;4024;52.172;5.378;2022-11-20T04:24:07;19.90;;;14.43;;
7957;SDS011;4024;52.172;5.378;2022-11-20T04:26:33;21.87;;;14.53;;
7957;SDS011;4024;52.172;5.378;2022-11-20T04:29:00;21.50;;;14.10;;
7957;SDS011;4024;52.172;5.378;2022-11-20T04:31:31;21.67;;;15.37;;
7957;SDS011;4024;52.172;5.378;2022-11-20T04:33:59;22.10;;;14.27;;
7957;SDS011;4024;52.172;5.378;2022-11-20T04:36:26;20.33;;;12.90;;
7957;SDS011;4024;52.172;5.378;2022-11-20T04:38:53;22.63;;;13.93;;
7957;SDS011;4024;52.172;5.378;2022-11-20T04:41:20;23.10;;;14.40;;
7957;SDS011;4024;52.172;5.378;2022-11-20T04:43:50;23.50;;;15.02;;
7957;SDS011;4024;52.172;5.378;2022-11-20T04:46:18;22.00;;;14.20;;
7957;SDS011;4024;52.172;5.378;2022-11-20T04:48:45;21.58;;;14.55;;
7957;SDS011;4024;52.172;5.378;2022-11-20T04:51:12;22.57;;;14.60;;
7957;SDS011;4024;52.172;5.378;2022-11-20T04:53:38;23.60;;;14.75;;
7957;SDS011;4024;52.172;5.378;2022-11-20T04:56:05;23.40;;;13.80;;
7957;SDS011;4024;52.172;5.378;2022-11-20T04:58:33;23.63;;;15.10;;
7957;SDS011;4024;52.172;5.378;2022-11-20T05:01:12;20.75;;;13.98;;
7957;SDS011;4024;52.172;5.378;2022-11-20T05:03:38;20.63;;;14.50;;
7957;SDS011;4024;52.172;5.378;2022-11-20T05:06:05;22.90;;;14.07;;
7957;SDS011;4024;52.172;5.378;2022-11-20T05:08:31;20.73;;;13.45;;
7957;SDS011;4024;52.172;5.378;2022-11-20T05:11:01;24.23;;;14.20;;
7957;SDS011;4024;52.172;5.378;2022-11-20T05:13:28;21.25;;;13.73;;
7957;SDS011;4024;52.172;5.378;2022-11-20T05:15:53;22.60;;;14.57;;
7957;SDS011;4024;52.172;5.378;2022-11-20T05:18:19;20.93;;;13.83;;
7957;SDS011;4024;52.172;5.378;2022-11-20T05:20:45;19.33;;;13.43;;
7957;SDS011;4024;52.172;5.378;2022-11-20T05:23:10;21.07;;;13.33;;
7957;SDS011;4024;52.172;5.378;2022-11-20T05:25:36;20.97;;;14.60;;
7957;SDS011;4024;52.172;5.378;2022-11-20T05:28:01;20.83;;;14.30;;
7957;SDS011;4024;52.172;5.378;2022-11-20T05:30:27;21.87;;;14.40;;
7957;SDS011;4024;52.172;5.378;2022-11-20T05:32:53;22.63;;;14.23;;
7957;SDS011;4024;52.172;5.378;2022-11-20T05:35:18;24.53;;;14.60;;
7957;SDS011;4024;52.172;5.378;2022-11-20T05:37:44;22.13;;;14.53;;
7957;SDS011;4024;52.172;5.378;2022-11-20T05:40:09;20.87;;;14.13;;
7957;SDS011;4024;52.172;5.378;2022-11-20T05:42:36;19.88;;;13.85;;
7957;SDS011;4024;52.172;5.378;2022-11-20T05:45:02;20.17;;;13.67;;
7957;SDS011;4024;52.172;5.378;2022-11-20T05:47:31;18.73;;;13.68;;
7957;SDS011;4024;52.172;5.378;2022-11-20T05:49:58;20.63;;;13.75;;
7957;SDS011;4024;52.172;5.378;2022-11-20T05:52:27;22.07;;;14.40;;
7957;SDS011;4024;52.172;5.378;2022-11-20T05:54:54;21.63;;;14.50;;
7957;SDS011;4024;52.172;5.378;2022-11-20T05:57:20;20.53;;;13.23;;
7957;SDS011;4024;52.172;5.378;2022-11-20T05:59:45;25.03;;;14.67;;
7957;SDS011;4024;52.172;5.378;2022-11-20T06:02:11;22.27;;;14.77;;
7957;SDS011;4024;52.172;5.378;2022-11-20T06:04:36;20.40;;;14.30;;
7957;SDS011;4024;52.172;5.378;2022-11-20T06:07:02;20.20;;;14.13;;
7957;SDS011;4024;52.172;5.378;2022-11-20T06:09:30;22.52;;;13.57;;
7957;SDS011;4024;52.172;5.378;2022-11-20T06:11:56;21.80;;;13.98;;
7957;SDS011;4024;52.172;5.378;2022-11-20T06:14:23;20.73;;;14.30;;
7957;SDS011;4024;52.172;5.378;2022-11-20T06:16:48;24.38;;;14.25;;
7957;SDS011;4024;52.172;5.378;2022-11-20T06:19:14;23.37;;;14.80;;
7957;SDS011;4024;52.172;5.378;2022-11-20T06:21:40;17.97;;;12.77;;
7957;SDS011;4024;52.172;5.378;2022-11-20T06:24:06;18.37;;;13.13;;
7957;SDS011;4024;52.172;5.378;2022-11-20T06:26:33;20.25;;;13.75;;
7957;SDS011;4024;52.172;5.378;2022-11-20T06:28:59;22.43;;;14.77;;
7957;SDS011;4024;52.172;5.378;2022-11-20T06:31:25;25.37;;;14.40;;
7957;SDS011;4024;52.172;5.378;2022-11-20T06:33:51;23.33;;;15.02;;
7957;SDS011;4024;52.172;5.378;2022-11-20T06:36:18;22.08;;;14.07;;
7957;SDS011;4024;52.172;5.378;2022-11-20T06:38:45;21.52;;;13.70;;
7957;SDS011;4024;52.172;5.378;2022-11-20T06:41:12;20.40;;;14.77;;
7957;SDS011;4024;52.172;5.378;2022-11-20T06:43:40;22.48;;;15.00;;
7957;SDS011;4024;52.172;5.378;2022-11-20T06:46:06;20.25;;;13.63;;
7957;SDS011;4024;52.172;5.378;2022-11-20T06:48:31;22.53;;;15.90;;
7957;SDS011;4024;52.172;5.378;2022-11-20T06:50:57;18.93;;;13.67;;
7957;SDS011;4024;52.172;5.378;2022-11-20T06:53:23;22.73;;;14.93;;
7957;SDS011;4024;52.172;5.378;2022-11-20T06:55:49;22.00;;;14.50;;
7957;SDS011;4024;52.172;5.378;2022-11-20T06:58:16;22.65;;;14.73;;
7957;SDS011;4024;52.172;5.378;2022-11-20T07:00:43;21.52;;;14.32;;
7957;SDS011;4024;52.172;5.378;2022-11-20T07:03:09;22.67;;;14.73;;
7957;SDS011;4024;52.172;5.378;2022-11-20T07:05:36;22.08;;;14.70;;
7957;SDS011;4024;52.172;5.378;2022-11-20T07:08:02;25.40;;;15.47;;
7957;SDS011;4024;52.172;5.378;2022-11-20T07:10:28;22.10;;;15.55;;
7957;SDS011;4024;52.172;5.378;2022-11-20T07:12:54;23.83;;;14.83;;
7957;SDS011;4024;52.172;5.378;2022-11-20T07:15:20;21.87;;;15.50;;
7957;SDS011;4024;52.172;5.378;2022-11-20T07:17:47;25.33;;;16.70;;
7957;SDS011;4024;52.172;5.378;2022-11-20T07:20:13;21.40;;;14.27;;
7957;SDS011;4024;52.172;5.378;2022-11-20T07:22:39;22.42;;;15.82;;
7957;SDS011;4024;52.172;5.378;2022-11-20T07:25:05;26.10;;;16.97;;
7957;SDS011;4024;52.172;5.378;2022-11-20T07:27:32;25.47;;;17.17;;
7957;SDS011;4024;52.172;5.378;2022-11-20T07:30:04;23.80;;;15.35;;
7957;SDS011;4024;52.172;5.378;2022-11-20T07:32:30;25.40;;;17.67;;
7957;SDS011;4024;52.172;5.378;2022-11-20T07:34:56;28.13;;;18.70;;
7957;SDS011;4024;52.172;5.378;2022-11-20T07:37:21;28.17;;;17.43;;
7957;SDS011;4024;52.172;5.378;2022-11-20T07:39:47;28.67;;;18.67;;
7957;SDS011;4024;52.172;5.378;2022-11-20T07:42:12;27.87;;;20.13;;
7957;SDS011;4024;52.172;5.378;2022-11-20T07:44:38;25.50;;;16.97;;
7957;SDS011;4024;52.172;5.378;2022-11-20T07:47:04;24.63;;;17.27;;
7957;SDS011;4024;52.172;5.378;2022-11-20T07:49:30;22.50;;;16.50;;
7957;SDS011;4024;52.172;5.378;2022-11-20T07:51:55;27.43;;;15.97;;
7957;SDS011;4024;52.172;5.378;2022-11-20T07:54:21;25.10;;;16.43;;
7957;SDS011;4024;52.172;5.378;2022-11-20T07:56:48;23.02;;;15.95;;
7957;SDS011;4024;52.172;5.378;2022-11-20T07:59:14;26.60;;;17.37;;
7957;SDS011;4024;52.172;5.378;2022-11-20T08:01:41;25.10;;;17.17;;
7957;SDS011;4024;52.172;5.378;2022-11-20T08:04:07;22.77;;;16.63;;
7957;SDS011;4024;52.172;5.378;2022-11-20T08:06:34;29.20;;;17.63;;
7957;SDS011;4024;52.172;5.378;2022-11-20T08:09:00;26.27;;;17.07;;
7957;SDS011;4024;52.172;5.378;2022-11-20T08:11:26;28.57;;;16.43;;
7957;SDS011;4024;52.172;5.378;2022-11-20T08:14:10;25.70;;;17.13;;
7957;SDS011;4024;52.172;5.378;2022-11-20T08:16:39;21.97;;;15.70;;
7957;SDS011;4024;52.172;5.378;2022-11-20T08:19:06;24.20;;;16.77;;
7957;SDS011;4024;52.172;5.378;2022-11-20T08:21:32;30.67;;;17.20;;
7957;SDS011;4024;52.172;5.378;2022-11-20T08:23:58;26.40;;;17.33;;
7957;SDS011;4024;52.172;5.378;2022-11-20T08:26:24;22.63;;;17.03;;
7957;SDS011;4024;52.172;5.378;2022-11-20T08:28:54;26.63;;;16.77;;
7957;SDS011;4024;52.172;5.378;2022-11-20T08:31:21;26.30;;;17.57;;
7957;SDS011;4024;52.172;5.378;2022-11-20T08:33:48;25.67;;;16.73;;
7957;SDS011;4024;52.172;5.378;2022-11-20T08:36:13;24.80;;;17.03;;
7957;SDS011;4024;52.172;5.378;2022-11-20T08:38:39;28.27;;;18.03;;
7957;SDS011;4024;52.172;5.378;2022-11-20T08:41:06;26.73;;;17.63;;
7957;SDS011;4024;52.172;5.378;2022-11-20T08:43:51;26.63;;;17.97;;
7957;SDS011;4024;52.172;5.378;2022-11-20T08:46:24;26.20;;;17.53;;
7957;SDS011;4024;52.172;5.378;2022-11-20T08:48:50;26.13;;;16.77;;
7957;SDS011;4024;52.172;5.378;2022-11-20T08:51:17;25.80;;;16.60;;
7957;SDS011;4024;52.172;5.378;2022-11-20T08:53:43;24.47;;;17.17;;
7957;SDS011;4024;52.172;5.378;2022-11-20T08:56:09;25.20;;;17.90;;
7957;SDS011;4024;52.172;5.378;2022-11-20T08:58:35;23.67;;;16.23;;
7957;SDS011;4024;52.172;5.378;2022-11-20T09:01:01;28.80;;;16.70;;
7957;SDS011;4024;52.172;5.378;2022-11-20T09:03:27;23.27;;;17.13;;
7957;SDS011;4024;52.172;5.378;2022-11-20T09:05:57;27.03;;;16.70;;
7957;SDS011;4024;52.172;5.378;2022-11-20T09:08:24;28.30;;;18.40;;
7957;SDS011;4024;52.172;5.378;2022-11-20T09:10:52;23.20;;;16.50;;
7957;SDS011;4024;52.172;5.378;2022-11-20T09:13:19;22.37;;;16.93;;
7957;SDS011;4024;52.172;5.378;2022-11-20T09:15:55;26.07;;;18.27;;
7957;SDS011;4024;52.172;5.378;2022-11-20T09:18:22;26.07;;;17.30;;
7957;SDS011;4024;52.172;5.378;2022-11-20T09:20:47;23.50;;;16.73;;
7957;SDS011;4024;52.172;5.378;2022-11-20T09:23:14;25.67;;;17.10;;
7957;SDS011;4024;52.172;5.378;2022-11-20T09:25:39;24.80;;;18.33;;
7957;SDS011;4024;52.172;5.378;2022-11-20T09:28:05;23.43;;;17.53;;
7957;SDS011;4024;52.172;5.378;2022-11-20T09:30:31;24.70;;;18.03;;
7957;SDS011;4024;52.172;5.378;2022-11-20T09:32:56;23.60;;;16.83;;
7957;SDS011;4024;52.172;5.378;2022-11-20T09:35:22;25.17;;;17.47;;
7957;SDS011;4024;52.172;5.378;2022-11-20T09:37:48;25.90;;;17.37;;
7957;SDS011;4024;52.172;5.378;2022-11-20T09:40:18;24.87;;;17.27;;
7957;SDS011;4024;52.172;5.378;2022-11-20T09:42:54;25.57;;;16.90;;
7957;SDS011;4024;52.172;5.378;2022-11-20T09:45:42;25.77;;;18.10;;
7957;SDS011;4024;52.172;5.378;2022-11-20T09:48:48;24.17;;;17.70;;
7957;SDS011;4024;52.172;5.378;2022-11-20T09:54:16;25.37;;;18.87;;
7957;SDS011;4024;52.172;5.378;2022-11-20T09:56:50;27.70;;;19.30;;
7957;SDS011;4024;52.172;5.378;2022-11-20T09:59:35;28.50;;;19.03;;
7957;SDS011;4024;52.172;5.378;2022-11-20T10:02:28;25.10;;;18.30;;
7957;SDS011;4024;52.172;5.378;2022-11-20T10:05:02;25.13;;;18.30;;
7957;SDS011;4024;52.172;5.378;2022-11-20T10:08:19;25.03;;;18.43;;
7957;SDS011;4024;52.172;5.378;2022-11-20T10:11:04;25.23;;;19.10;;
7957;SDS011;4024;52.172;5.378;2022-11-20T10:13:51;26.27;;;18.53;;
7957;SDS011;4024;52.172;5.378;2022-11-20T10:24:30;26.20;;;19.20;;
7957;SDS011;4024;52.172;5.378;2022-11-20T10:30:12;29.00;;;18.10;;
7957;SDS011;4024;52.172;5.378;2022-11-20T10:32:41;25.50;;;18.43;;
7957;SDS011;4024;52.172;5.378;2022-11-20T10:35:19;27.07;;;19.00;;
7957;SDS011;4024;52.172;5.378;2022-11-20T10:38:09;29.03;;;19.77;;
7957;SDS011;4024;52.172;5.378;2022-11-20T10:40:57;28.43;;;20.13;;
7957;SDS011;4024;52.172;5.378;2022-11-20T10:43:45;29.37;;;20.57;;
7957;SDS011;4024;52.172;5.378;2022-11-20T10:46:15;31.23;;;20.97;;
7957;SDS011;4024;52.172;5.378;2022-11-20T10:48:45;31.07;;;20.97;;
7957;SDS011;4024;52.172;5.378;2022-11-20T10:51:27;31.97;;;20.40;;
7957;SDS011;4024;52.172;5.378;2022-11-20T10:56:52;29.87;;;20.70;;
7957;SDS011;4024;52.172;5.378;2022-11-20T11:01:59;26.43;;;19.77;;
7957;SDS011;4024;52.172;5.378;2022-11-20T11:06:54;33.63;;;22.07;;
7957;SDS011;4024;52.172;5.378;2022-11-20T11:09:44;32.17;;;22.67;;
7957;SDS011;4024;52.172;5.378;2022-11-20T11:12:13;35.50;;;24.90;;
7957;SDS011;4024;52.172;5.378;2022-11-20T11:14:47;39.13;;;27.93;;
7957;SDS011;4024;52.172;5.378;2022-11-20T11:19:58;34.67;;;24.57;;
7957;SDS011;4024;52.172;5.378;2022-11-20T11:22:25;33.03;;;23.63;;
7957;SDS011;4024;52.172;5.378;2022-11-20T11:24:54;34.37;;;23.93;;
7957;SDS011;4024;52.172;5.378;2022-11-20T11:27:20;37.57;;;23.50;;
7957;SDS011;4024;52.172;5.378;2022-11-20T11:29:45;34.27;;;23.40;;
7957;SDS011;4024;52.172;5.378;2022-11-20T11:32:12;34.90;;;24.20;;
7957;SDS011;4024;52.172;5.378;2022-11-20T11:34:39;41.80;;;29.53;;
7957;SDS011;4024;52.172;5.378;2022-11-20T11:37:04;41.70;;;29.03;;
7957;SDS011;4024;52.172;5.378;2022-11-20T11:39:39;40.90;;;26.83;;
7957;SDS011;4024;52.172;5.378;2022-11-20T11:42:10;36.57;;;25.23;;
7957;SDS011;4024;52.172;5.378;2022-11-20T11:44:43;38.60;;;27.33;;
7957;SDS011;4024;52.172;5.378;2022-11-20T11:47:30;39.57;;;28.37;;
7957;SDS011;4024;52.172;5.378;2022-11-20T11:50:07;63.30;;;43.73;;
7957;SDS011;4024;52.172;5.378;2022-11-20T12:04:04;47.03;;;34.67;;
7957;SDS011;4024;52.172;5.378;2022-11-20T12:06:42;53.20;;;38.30;;
7957;SDS011;4024;52.172;5.378;2022-11-20T12:09:12;54.93;;;43.67;;
7957;SDS011;4024;52.172;5.378;2022-11-20T12:12:39;43.83;;;30.90;;
7957;SDS011;4024;52.172;5.378;2022-11-20T12:14:36;43.70;;;27.47;;
7957;SDS011;4024;52.172;5.378;2022-11-20T12:17:03;39.20;;;26.43;;
7957;SDS011;4024;52.172;5.378;2022-11-20T12:19:29;36.03;;;25.40;;
7957;SDS011;4024;52.172;5.378;2022-11-20T12:24:34;40.40;;;26.33;;
7957;SDS011;4024;52.172;5.378;2022-11-20T12:30:15;38.07;;;25.97;;
7957;SDS011;4024;52.172;5.378;2022-11-20T12:35:39;39.03;;;25.57;;
7957;SDS011;4024;52.172;5.378;2022-11-20T12:41:10;38.10;;;25.87;;
7957;SDS011;4024;52.172;5.378;2022-11-20T12:47:43;39.20;;;25.63;;
7957;SDS011;4024;52.172;5.378;2022-11-20T12:54:00;37.70;;;24.80;;
7957;SDS011;4024;52.172;5.378;2022-11-20T13:07:30;38.63;;;27.10;;
7957;SDS011;4024;52.172;5.378;2022-11-20T13:09:57;37.73;;;25.63;;
7957;SDS011;4024;52.172;5.378;2022-11-20T13:15:17;34.80;;;24.80;;
7957;SDS011;4024;52.172;5.378;2022-11-20T13:18:08;39.97;;;26.80;;
7957;SDS011;4024;52.172;5.378;2022-11-20T13:20:36;43.80;;;26.57;;
7957;SDS011;4024;52.172;5.378;2022-11-20T13:23:10;37.67;;;25.30;;
7957;SDS011;4024;52.172;5.378;2022-11-20T13:25:37;36.97;;;25.43;;
7957;SDS011;4024;52.172;5.378;2022-11-20T13:28:24;36.03;;;24.83;;
7957;SDS011;4024;52.172;5.378;2022-11-20T13:30:54;36.97;;;25.37;;
7957;SDS011;4024;52.172;5.378;2022-11-20T13:33:34;38.80;;;27.10;;
7957;SDS011;4024;52.172;5.378;2022-11-20T13:36:03;39.20;;;26.73;;
7957;SDS011;4024;52.172;5.378;2022-11-20T13:38:40;38.03;;;27.50;;
7957;SDS011;4024;52.172;5.378;2022-11-20T13:41:23;37.30;;;25.87;;
7957;SDS011;4024;52.172;5.378;2022-11-20T13:44:15;38.23;;;26.00;;
7957;SDS011;4024;52.172;5.378;2022-11-20T13:46:50;39.40;;;25.10;;
7957;SDS011;4024;52.172;5.378;2022-11-20T13:49:37;40.50;;;26.10;;
7957;SDS011;4024;52.172;5.378;2022-11-20T13:55:22;39.53;;;25.53;;
7957;SDS011;4024;52.172;5.378;2022-11-20T14:01:11;41.73;;;26.70;;
7957;SDS011;4024;52.172;5.378;2022-11-20T14:03:42;37.90;;;26.37;;
7957;SDS011;4024;52.172;5.378;2022-11-20T14:06:12;39.47;;;26.20;;
7957;SDS011;4024;52.172;5.378;2022-11-20T14:08:47;36.23;;;25.13;;
7957;SDS011;4024;52.172;5.378;2022-11-20T14:11:17;39.07;;;25.10;;
7957;SDS011;4024;52.172;5.378;2022-11-20T14:16:20;37.87;;;25.60;;
7957;SDS011;4024;52.172;5.378;2022-11-20T14:18:47;39.60;;;24.77;;
7957;SDS011;4024;52.172;5.378;2022-11-20T14:21:20;36.13;;;24.33;;
7957;SDS011;4024;52.172;5.378;2022-11-20T14:24:10;38.77;;;25.20;;
7957;SDS011;4024;52.172;5.378;2022-11-20T14:26:37;41.70;;;26.53;;
7957;SDS011;4024;52.172;5.378;2022-11-20T14:29:17;37.23;;;24.50;;
7957;SDS011;4024;52.172;5.378;2022-11-20T14:31:45;38.93;;;25.77;;
7957;SDS011;4024;52.172;5.378;2022-11-20T14:34:14;39.93;;;26.47;;
7957;SDS011;4024;52.172;5.378;2022-11-20T14:36:43;42.30;;;27.07;;
7957;SDS011;4024;52.172;5.378;2022-11-20T14:39:11;45.70;;;26.77;;
7957;SDS011;4024;52.172;5.378;2022-11-20T14:41:50;42.30;;;26.70;;
7957;SDS011;4024;52.172;5.378;2022-11-20T14:44:16;38.63;;;26.07;;
7957;SDS011;4024;52.172;5.378;2022-11-20T14:46:42;40.50;;;25.77;;
7957;SDS011;4024;52.172;5.378;2022-11-20T14:49:09;43.00;;;26.50;;
7957;SDS011;4024;52.172;5.378;2022-11-20T14:51:37;42.17;;;27.67;;
7957;SDS011;4024;52.172;5.378;2022-11-20T14:54:08;43.13;;;27.07;;
7957;SDS011;4024;52.172;5.378;2022-11-20T14:56:36;42.10;;;26.80;;
7957;SDS011;4024;52.172;5.378;2022-11-20T14:59:02;41.67;;;26.40;;
7957;SDS011;4024;52.172;5.378;2022-11-20T15:01:29;42.47;;;29.13;;
7957;SDS011;4024;52.172;5.378;2022-11-20T15:04:10;36.60;;;25.20;;
7957;SDS011;4024;52.172;5.378;2022-11-20T15:06:36;38.60;;;26.50;;
7957;SDS011;4024;52.172;5.378;2022-11-20T15:09:12;45.87;;;28.83;;
7957;SDS011;4024;52.172;5.378;2022-11-20T15:11:40;40.93;;;27.83;;
7957;SDS011;4024;52.172;5.378;2022-11-20T15:14:18;42.73;;;26.97;;
7957;SDS011;4024;52.172;5.378;2022-11-20T15:16:44;41.37;;;27.80;;
7957;SDS011;4024;52.172;5.378;2022-11-20T15:19:17;43.77;;;28.63;;
7957;SDS011;4024;52.172;5.378;2022-11-20T15:21:45;38.10;;;27.77;;
7957;SDS011;4024;52.172;5.378;2022-11-20T15:24:11;44.17;;;29.70;;
7957;SDS011;4024;52.172;5.378;2022-11-20T15:26:36;42.87;;;28.97;;
7957;SDS011;4024;52.172;5.378;2022-11-20T15:29:05;41.63;;;29.40;;
7957;SDS011;4024;52.172;5.378;2022-11-20T15:31:35;45.57;;;30.90;;
7957;SDS011;4024;52.172;5.378;2022-11-20T15:34:02;43.87;;;30.10;;
7957;SDS011;4024;52.172;5.378;2022-11-20T15:36:31;40.67;;;28.37;;
7957;SDS011;4024;52.172;5.378;2022-11-20T15:38:57;40.97;;;28.97;;
7957;SDS011;4024;52.172;5.378;2022-11-20T15:41:22;42.50;;;28.73;;
7957;SDS011;4024;52.172;5.378;2022-11-20T15:43:48;45.53;;;29.53;;
7957;SDS011;4024;52.172;5.378;2022-11-20T15:46:15;44.10;;;28.47;;
7957;SDS011;4024;52.172;5.378;2022-11-20T15:48:45;42.47;;;28.20;;
7957;SDS011;4024;52.172;5.378;2022-11-20T15:51:35;44.97;;;28.17;;
7957;SDS011;4024;52.172;5.378;2022-11-20T15:54:13;41.50;;;27.67;;
7957;SDS011;4024;52.172;5.378;2022-11-20T15:56:47;45.90;;;29.30;;
7957;SDS011;4024;52.172;5.378;2022-11-20T15:59:13;38.93;;;26.50;;
7957;SDS011;4024;52.172;5.378;2022-11-20T16:01:40;37.23;;;26.50;;
7957;SDS011;4024;52.172;5.378;2022-11-20T16:04:13;41.33;;;27.60;;
7957;SDS011;4024;52.172;5.378;2022-11-20T16:06:40;42.20;;;27.23;;
7957;SDS011;4024;52.172;5.378;2022-11-20T16:09:06;40.47;;;26.43;;
7957;SDS011;4024;52.172;5.378;2022-11-20T16:11:33;40.17;;;27.63;;
7957;SDS011;4024;52.172;5.378;2022-11-20T16:14:01;43.80;;;28.20;;
7957;SDS011;4024;52.172;5.378;2022-11-20T16:16:45;42.50;;;26.77;;
7957;SDS011;4024;52.172;5.378;2022-11-20T16:19:14;41.30;;;26.50;;
7957;SDS011;4024;52.172;5.378;2022-11-20T16:21:41;40.90;;;27.13;;
7957;SDS011;4024;52.172;5.378;2022-11-20T16:24:08;40.10;;;27.27;;
7957;SDS011;4024;52.172;5.378;2022-11-20T16:26:36;37.13;;;26.90;;
7957;SDS011;4024;52.172;5.378;2022-11-20T16:29:03;36.20;;;26.37;;
7957;SDS011;4024;52.172;5.378;2022-11-20T16:31:30;36.67;;;24.00;;